Time;durP1;ratioP1;P1;durP2;ratioP2;P2;SDS_P1;SDS_P2;PMS_P1;PMS_P2;Temp;Humidity;BMP_temperature;BMP_pressure;BME280_temperature;BME280_humidity;BME280_pressure;Samples;Min_cycle;Max_cycle;Signal;HPM_P1;HPM_P2
2021/10/14 00:00:17;;;;;;;13.00;8.03;;;;;;;9.30;66.11;100372.11;1734804;79;21498;-58
2021/10/14 00:02:44;;;;;;;17.40;8.83;;;;;;;9.30;65.88;100372.11;1759544;81;21070;-59
2021/10/14 00:05:10;;;;;;;15.40;9.00;;;;;;;9.25;65.78;100369.82;1729072;81;21580;-59
2021/10/14 00:07:37;;;;;;;14.78;8.70;;;;;;;9.20;65.63;100373.27;1730508;81;21060;-61
2021/10/14 00:10:05;;;;;;;20.52;9.13;;;;;;;9.19;65.67;100383.88;1751709;79;21544;-58
2021/10/14 00:12:32;;;;;;;20.23;9.40;;;;;;;9.20;65.65;100384.25;1726941;81;21076;-59
2021/10/14 00:14:58;;;;;;;17.48;8.58;;;;;;;9.21;65.63;100380.66;1758601;80;21781;-59
2021/10/14 00:17:24;;;;;;;16.35;8.95;;;;;;;9.17;65.73;100387.10;1759158;81;21066;-59
2021/10/14 00:19:52;;;;;;;15.20;8.53;;;;;;;9.11;65.85;100382.67;1756769;79;22250;-60
2021/10/14 00:22:18;;;;;;;11.20;7.25;;;;;;;9.07;65.85;100381.20;1755015;81;21015;-62
2021/10/14 00:24:45;;;;;;;14.30;8.45;;;;;;;9.05;65.91;100392.30;1754113;79;21147;-58
2021/10/14 00:27:11;;;;;;;13.58;7.67;;;;;;;9.05;65.92;100396.23;1764081;80;21102;-58
2021/10/14 00:29:39;;;;;;;13.88;8.25;;;;;;;9.10;65.89;100394.11;1724361;81;20959;-58
2021/10/14 00:32:06;;;;;;;13.00;8.18;;;;;;;9.13;65.90;100398.77;1753239;81;21454;-60
2021/10/14 00:34:33;;;;;;;15.32;9.03;;;;;;;9.01;66.17;100408.38;1739793;81;21078;-58
2021/10/14 00:36:59;;;;;;;13.25;8.23;;;;;;;8.86;66.44;100404.62;1756827;79;21795;-61
2021/10/14 00:39:25;;;;;;;13.32;8.13;;;;;;;8.78;66.71;100402.20;1731511;81;21068;-59
2021/10/14 00:41:52;;;;;;;16.20;8.35;;;;;;;8.74;67.00;100408.11;1752785;79;21046;-60
2021/10/14 00:44:18;;;;;;;16.15;8.30;;;;;;;8.67;67.22;100410.34;1754166;81;20991;-59
2021/10/14 00:46:55;;;;;;;13.68;7.30;;;;;;;8.68;67.18;100414.65;1751338;79;21030;-59
2021/10/14 00:49:22;;;;;;;12.40;7.47;;;;;;;8.79;66.72;100414.34;1751032;81;22200;-59
2021/10/14 00:51:48;;;;;;;13.62;8.25;;;;;;;8.84;66.67;100409.61;1754497;79;21114;-59
2021/10/14 00:54:17;;;;;;;11.93;8.10;;;;;;;8.87;66.78;100406.77;1757607;81;21118;-58
2021/10/14 00:56:44;;;;;;;13.30;6.78;;;;;;;8.91;66.75;100415.63;1690848;82;21043;-57
2021/10/14 00:59:11;;;;;;;15.35;7.97;;;;;;;8.90;66.69;100414.42;1662871;84;21110;-59
2021/10/14 01:01:37;;;;;;;16.27;8.58;;;;;;;8.82;66.84;100424.63;1713495;82;21075;-59
2021/10/14 01:04:06;;;;;;;12.18;7.22;;;;;;;8.73;67.00;100426.13;1686691;83;21603;-60
2021/10/14 01:06:33;;;;;;;15.00;8.30;;;;;;;8.65;67.26;100424.53;1698246;82;21007;-57
2021/10/14 01:08:59;;;;;;;15.03;7.65;;;;;;;8.66;67.38;100427.05;1759037;81;21162;-58
2021/10/14 01:11:26;;;;;;;13.05;7.10;;;;;;;8.76;67.25;100425.06;1738951;81;20988;-58
2021/10/14 01:13:52;;;;;;;14.23;7.83;;;;;;;8.82;66.90;100429.87;1758321;81;21221;-59
2021/10/14 01:16:19;;;;;;;13.80;8.38;;;;;;;8.86;66.93;100430.86;1750703;81;20976;-59
2021/10/14 01:18:45;;;;;;;14.33;7.10;;;;;;;8.88;66.64;100424.20;1761970;80;21083;-58
2021/10/14 01:21:11;;;;;;;14.93;8.28;;;;;;;8.89;66.41;100431.96;1736796;81;21555;-58
2021/10/14 01:23:40;;;;;;;11.35;6.78;;;;;;;8.88;66.18;100424.20;1752950;79;21038;-59
2021/10/14 01:26:07;;;;;;;11.95;6.83;;;;;;;8.85;66.10;100440.16;1752244;79;21191;-58
2021/10/14 01:28:34;;;;;;;11.85;6.92;;;;;;;8.78;66.13;100433.68;1754314;81;21055;-58
2021/10/14 01:31:00;;;;;;;15.95;7.40;;;;;;;8.76;66.26;100439.03;1690887;82;21747;-58
2021/10/14 01:33:27;;;;;;;17.57;7.60;;;;;;;8.81;66.26;100443.48;1678231;83;21047;-59
2021/10/14 01:35:53;;;;;;;12.07;6.83;;;;;;;8.84;66.22;100437.16;1756056;79;21086;-58
2021/10/14 01:38:19;;;;;;;12.50;7.12;;;;;;;8.87;66.23;100447.44;1755806;81;21067;-59
2021/10/14 01:40:46;;;;;;;12.95;7.58;;;;;;;8.85;66.23;100448.03;1756955;81;21114;-58
2021/10/14 01:43:13;;;;;;;11.93;6.47;;;;;;;8.83;66.27;100454.70;1738722;81;21854;-59
2021/10/14 01:45:40;;;;;;;11.10;6.60;;;;;;;8.80;66.22;100451.45;1756632;79;21663;-58
2021/10/14 01:48:06;;;;;;;13.78;7.47;;;;;;;8.80;66.17;100461.95;1738950;81;21042;-59
2021/10/14 01:50:33;;;;;;;12.58;6.85;;;;;;;8.79;66.07;100461.58;1751448;81;21158;-58
2021/10/14 01:52:59;;;;;;;13.45;7.45;;;;;;;8.75;66.14;100467.52;1756023;79;21252;-58
2021/10/14 01:55:26;;;;;;;14.18;6.78;;;;;;;8.74;66.07;100468.00;1753172;79;21052;-58
2021/10/14 01:57:52;;;;;;;12.07;7.20;;;;;;;8.77;66.09;100472.66;1739318;80;21666;-59
2021/10/14 02:00:18;;;;;;;13.10;6.55;;;;;;;8.76;66.16;100477.53;1776213;78;21038;-58
2021/10/14 02:02:45;;;;;;;13.68;7.67;;;;;;;8.70;66.22;100474.39;1770694;78;21147;-59
2021/10/14 02:05:12;;;;;;;11.78;6.47;;;;;;;8.68;66.18;100475.47;1764956;79;21627;-58
2021/10/14 02:07:38;;;;;;;9.30;5.45;;;;;;;8.67;66.16;100481.65;1759154;78;21070;-58
2021/10/14 02:10:07;;;;;;;11.78;6.92;;;;;;;8.66;66.07;100480.82;1761589;78;21548;-58
2021/10/14 02:13:22;;;;;;;12.23;6.15;;;;;;;8.64;66.13;100480.09;1780846;78;23242;-57
2021/10/14 02:15:49;;;;;;;10.48;5.90;;;;;;;8.61;66.09;100486.86;1744518;80;21004;-57
2021/10/14 02:18:17;;;;;;;11.12;6.50;;;;;;;8.66;65.95;100486.55;1739823;81;21099;-57
2021/10/14 02:20:43;;;;;;;9.73;5.85;;;;;;;8.70;65.89;100490.62;1738991;80;21063;-57
2021/10/14 02:23:09;;;;;;;10.88;6.30;;;;;;;8.68;65.78;100492.52;1741462;81;21035;-58
2021/10/14 02:25:36;;;;;;;9.55;5.58;;;;;;;8.64;65.82;100496.28;1741622;80;21549;-58
2021/10/14 02:28:03;;;;;;;13.00;6.60;;;;;;;8.56;65.87;100498.16;1718526;80;21614;-58
2021/10/14 02:30:29;;;;;;;12.30;6.30;;;;;;;8.41;66.24;100499.19;1738995;80;22432;-58
2021/10/14 02:32:56;;;;;;;11.00;5.67;;;;;;;8.24;66.65;100502.49;1732291;80;21062;-58
2021/10/14 02:35:22;;;;;;;10.13;5.60;;;;;;;8.13;67.02;100503.69;1733384;80;21058;-58
2021/10/14 02:37:48;;;;;;;9.90;5.50;;;;;;;8.10;67.18;100509.98;1746717;80;21083;-58
2021/10/14 02:40:15;;;;;;;8.85;5.25;;;;;;;8.10;67.23;100514.38;1716963;80;21010;-58
2021/10/14 02:42:41;;;;;;;10.60;5.92;;;;;;;8.04;67.37;100521.36;1697679;83;21183;-58
2021/10/14 02:45:08;;;;;;;12.23;5.75;;;;;;;7.98;67.50;100527.83;1686713;82;21068;-58
2021/10/14 02:47:35;;;;;;;11.97;6.45;;;;;;;7.89;67.56;100530.59;1679054;83;21106;-59
2021/10/14 02:50:01;;;;;;;9.70;6.05;;;;;;;7.78;67.67;100531.77;1711753;82;21003;-58
2021/10/14 02:52:27;;;;;;;11.80;6.00;;;;;;;7.65;67.91;100531.75;1708906;81;21062;-59
2021/10/14 02:54:54;;;;;;;11.22;5.15;;;;;;;7.51;68.30;100537.04;1713327;82;21048;-58
2021/10/14 02:57:20;;;;;;;12.03;5.78;;;;;;;7.43;68.65;100537.52;1680504;83;21046;-58
2021/10/14 02:59:48;;;;;;;11.97;6.08;;;;;;;7.38;68.89;100541.77;1708409;83;21094;-59
2021/10/14 03:02:15;;;;;;;13.15;5.75;;;;;;;7.33;68.88;100542.98;1710807;81;21879;-59
2021/10/14 03:04:41;;;;;;;11.48;6.80;;;;;;;7.23;69.06;100541.44;1714046;81;21578;-59
2021/10/14 03:07:08;;;;;;;12.73;6.17;;;;;;;7.13;69.27;100542.48;1714296;81;21161;-58
2021/10/14 03:09:34;;;;;;;10.20;5.47;;;;;;;7.08;69.48;100544.55;1700997;81;20992;-60
2021/10/14 03:12:03;;;;;;;11.83;5.80;;;;;;;7.03;69.61;100546.14;1697785;82;21832;-60
2021/10/14 03:14:29;;;;;;;12.15;5.58;;;;;;;7.03;69.61;100542.70;1707913;82;21070;-59
2021/10/14 03:16:56;;;;;;;10.98;5.47;;;;;;;7.05;69.51;100549.50;1701278;82;21038;-59
2021/10/14 03:19:22;;;;;;;10.63;5.85;;;;;;;7.09;69.41;100549.31;1695652;82;21181;-59
2021/10/14 03:21:49;;;;;;;9.80;5.62;;;;;;;7.07;69.38;100548.09;1704774;82;21489;-60
2021/10/14 03:24:15;;;;;;;10.15;5.55;;;;;;;7.04;69.51;100551.77;1742521;81;21528;-61
2021/10/14 03:26:42;;;;;;;12.63;6.28;;;;;;;7.05;69.67;100549.97;1739168;80;21093;-61
2021/10/14 03:29:08;;;;;;;12.40;7.00;;;;;;;7.09;69.50;100540.98;1746199;80;21059;-59
2021/10/14 03:31:34;;;;;;;10.75;5.50;;;;;;;7.09;69.21;100550.62;1741882;81;22393;-59
2021/10/14 03:34:01;;;;;;;10.98;6.20;;;;;;;7.09;69.07;100564.53;1730972;80;21066;-59
2021/10/14 03:36:27;;;;;;;11.35;5.60;;;;;;;7.12;68.85;100564.83;1740608;81;21071;-59
2021/10/14 03:38:54;;;;;;;10.95;5.97;;;;;;;7.12;68.76;100566.97;1732647;80;21718;-59
2021/10/14 03:41:20;;;;;;;10.88;6.83;;;;;;;7.10;68.79;100565.39;1737360;81;21025;-60
2021/10/14 03:43:47;;;;;;;13.13;7.30;;;;;;;7.01;68.90;100565.48;1726617;81;22078;-59
2021/10/14 03:46:13;;;;;;;11.05;6.22;;;;;;;6.93;69.06;100571.67;1719415;82;21057;-61
2021/10/14 03:48:40;;;;;;;12.40;6.42;;;;;;;6.86;69.24;100578.59;1742847;80;21575;-59
2021/10/14 03:51:06;;;;;;;13.32;7.60;;;;;;;6.80;69.22;100571.58;1727006;82;21121;-59
2021/10/14 03:53:33;;;;;;;15.75;9.35;;;;;;;6.73;69.34;100576.34;1706082;82;21544;-58
2021/10/14 03:55:59;;;;;;;24.02;14.15;;;;;;;6.70;69.29;100590.43;1723174;81;21378;-58
2021/10/14 03:58:26;;;;;;;16.73;10.75;;;;;;;6.73;69.30;100592.52;1740359;80;21082;-59
2021/10/14 04:00:53;;;;;;;13.35;7.58;;;;;;;6.73;69.17;100599.05;1743030;80;21087;-57
2021/10/14 04:03:19;;;;;;;11.48;7.75;;;;;;;6.67;69.21;100596.31;1694919;82;21066;-59
2021/10/14 04:05:46;;;;;;;12.07;7.05;;;;;;;6.60;69.28;100598.46;1695283;82;21567;-61
2021/10/14 04:08:12;;;;;;;10.60;6.65;;;;;;;6.56;69.32;100606.13;1704922;83;21926;-58
2021/10/14 04:10:39;;;;;;;11.15;6.83;;;;;;;6.48;69.34;100603.95;1703735;82;21053;-60
2021/10/14 04:13:06;;;;;;;10.63;6.87;;;;;;;6.47;69.55;100609.27;1678302;84;21064;-59
2021/10/14 04:15:33;;;;;;;10.90;6.40;;;;;;;6.43;69.53;100607.78;1695221;83;21091;-63
2021/10/14 04:18:00;;;;;;;10.58;6.22;;;;;;;6.45;69.45;100617.20;1667097;84;21115;-59
2021/10/14 04:20:26;;;;;;;10.78;6.20;;;;;;;6.50;69.18;100618.25;1688986;83;23363;-58
2021/10/14 04:22:53;;;;;;;10.48;6.30;;;;;;;6.50;69.02;100619.08;1689537;84;21477;-59
2021/10/14 04:25:20;;;;;;;11.83;6.60;;;;;;;6.44;68.91;100612.92;1692173;82;21130;-60
2021/10/14 04:27:46;;;;;;;15.53;7.35;;;;;;;6.38;69.11;100618.50;1719104;81;21562;-59
2021/10/14 04:30:13;;;;;;;10.48;5.80;;;;;;;6.33;69.18;100620.55;1738122;80;21042;-59
2021/10/14 04:32:40;;;;;;;13.60;7.17;;;;;;;6.26;69.18;100626.59;1740940;80;21240;-59
2021/10/14 04:35:07;;;;;;;12.33;7.03;;;;;;;6.14;69.26;100626.01;1741249;80;21025;-61
2021/10/14 04:37:34;;;;;;;16.20;9.13;;;;;;;6.07;69.43;100635.97;1745470;80;21069;-60
2021/10/14 04:40:00;;;;;;;16.32;9.15;;;;;;;6.06;69.54;100645.20;1741649;80;21050;-59
2021/10/14 04:42:27;;;;;;;17.82;9.08;;;;;;;6.07;69.42;100646.42;1742043;81;21063;-58
2021/10/14 04:44:53;;;;;;;16.20;8.18;;;;;;;6.04;69.34;100643.98;1742180;80;21955;-60
2021/10/14 04:47:20;;;;;;;12.93;8.83;;;;;;;6.00;69.46;100649.45;1743141;81;21098;-58
2021/10/14 04:49:47;;;;;;;11.83;7.33;;;;;;;5.95;69.69;100659.68;1724414;80;20996;-58
2021/10/14 04:52:14;;;;;;;13.13;7.78;;;;;;;5.91;69.61;100662.07;1727168;81;21085;-59
2021/10/14 04:54:41;;;;;;;12.60;7.87;;;;;;;5.83;69.72;100662.95;1733483;81;21023;-58
2021/10/14 04:57:07;;;;;;;12.28;7.87;;;;;;;5.81;69.85;100669.21;1741459;80;21560;-60
2021/10/14 04:59:34;;;;;;;13.83;7.97;;;;;;;5.75;69.83;100675.16;1742059;81;21723;-60
2021/10/14 05:02:00;;;;;;;15.70;7.90;;;;;;;5.73;69.85;100678.31;1699141;82;21066;-59
2021/10/14 05:04:26;;;;;;;13.00;7.15;;;;;;;5.76;69.70;100682.52;1673934;83;21608;-59
2021/10/14 05:06:53;;;;;;;16.48;9.73;;;;;;;5.82;69.86;100693.11;1696631;83;21047;-60
2021/10/14 05:09:19;;;;;;;18.10;10.50;;;;;;;5.85;69.74;100695.52;1681753;83;21889;-59
2021/10/14 05:11:46;;;;;;;15.10;9.60;;;;;;;5.81;69.74;100693.55;1693729;82;21111;-59
2021/10/14 05:14:12;;;;;;;14.73;8.55;;;;;;;5.77;69.80;100696.80;1681271;82;21032;-58
2021/10/14 05:16:39;;;;;;;15.72;9.00;;;;;;;5.75;69.92;100699.13;1656862;84;21837;-59
2021/10/14 05:19:05;;;;;;;22.10;9.45;;;;;;;5.72;70.08;100700.59;1685526;83;21055;-60
2021/10/14 05:21:32;;;;;;;11.65;7.50;;;;;;;5.76;70.17;100706.84;1668672;83;21191;-59
2021/10/14 05:24:00;;;;;;;14.33;7.95;;;;;;;5.88;69.94;100709.25;1699882;83;21166;-57
2021/10/14 05:26:28;;;;;;;11.22;7.60;;;;;;;6.00;69.72;100718.68;1697610;82;21097;-59
2021/10/14 05:28:55;;;;;;;13.32;7.92;;;;;;;6.03;69.46;100721.13;1696567;82;21816;-58
2021/10/14 05:31:22;;;;;;;12.35;8.23;;;;;;;5.94;69.58;100727.67;1693293;82;21095;-60
2021/10/14 05:33:48;;;;;;;13.83;8.33;;;;;;;5.90;69.82;100724.84;1698938;82;22383;-60
2021/10/14 05:36:15;;;;;;;14.23;7.92;;;;;;;5.87;70.07;100728.95;1694663;82;21103;-59
2021/10/14 05:38:42;;;;;;;16.27;8.03;;;;;;;5.88;70.19;100735.84;1738799;80;21043;-61
2021/10/14 05:41:09;;;;;;;13.93;8.48;;;;;;;5.90;70.23;100733.53;1740005;80;21073;-58
2021/10/14 05:43:35;;;;;;;12.25;8.23;;;;;;;5.98;70.14;100733.60;1739342;80;21085;-59
2021/10/14 05:46:01;;;;;;;16.00;8.75;;;;;;;6.13;69.92;100733.58;1750734;80;22176;-59
2021/10/14 05:48:28;;;;;;;13.72;9.03;;;;;;;6.26;69.58;100736.83;1720642;82;21067;-58
2021/10/14 05:50:55;;;;;;;17.67;9.00;;;;;;;6.33;69.61;100741.61;1739380;80;22265;-58
2021/10/14 05:53:21;;;;;;;15.30;9.03;;;;;;;6.34;69.44;100742.47;1725215;80;21053;-61
2021/10/14 05:55:48;;;;;;;14.05;8.55;;;;;;;6.31;69.42;100751.78;1698585;82;21637;-58
2021/10/14 05:58:15;;;;;;;16.77;9.05;;;;;;;6.32;69.64;100752.14;1736776;80;21139;-59
2021/10/14 06:00:41;;;;;;;14.50;9.03;;;;;;;6.35;69.47;100759.81;1737950;80;21011;-59
2021/10/14 06:03:08;;;;;;;19.60;9.35;;;;;;;6.42;69.55;100766.41;1739985;80;21082;-59
2021/10/14 06:05:35;;;;;;;19.15;8.35;;;;;;;6.56;69.25;100757.77;1734732;80;21651;-59
2021/10/14 06:08:01;;;;;;;20.37;9.43;;;;;;;6.68;68.91;100761.45;1711930;82;21030;-60
2021/10/14 06:10:27;;;;;;;13.38;8.53;;;;;;;6.76;69.02;100772.77;1703619;82;21554;-59
2021/10/14 06:12:54;;;;;;;16.57;9.33;;;;;;;6.76;68.94;100773.63;1696050;82;21043;-59
2021/10/14 06:15:20;;;;;;;19.23;10.18;;;;;;;6.76;69.03;100771.01;1697649;83;21469;-60
2021/10/14 06:17:46;;;;;;;14.50;8.40;;;;;;;6.78;69.22;100774.38;1730688;80;21048;-59
2021/10/14 06:20:13;;;;;;;17.32;11.35;;;;;;;6.84;69.20;100774.47;1689697;83;20991;-58
2021/10/14 06:22:39;;;;;;;14.30;9.45;;;;;;;6.87;68.94;100770.38;1719238;81;21031;-57
2021/10/14 06:25:07;;;;;;;17.57;9.43;;;;;;;6.98;68.92;100784.15;1734633;80;21008;-57
2021/10/14 06:27:35;;;;;;;16.35;9.85;;;;;;;7.15;68.76;100793.15;1734142;81;21017;-57
2021/10/14 06:30:01;;;;;;;15.10;9.35;;;;;;;7.26;67.91;100793.80;1716020;82;21079;-58
2021/10/14 06:32:28;;;;;;;16.57;8.93;;;;;;;7.28;67.94;100789.34;1736145;80;21712;-56
2021/10/14 06:34:54;;;;;;;17.70;10.10;;;;;;;7.29;67.84;100795.41;1724760;82;21161;-57
2021/10/14 06:37:21;;;;;;;14.50;8.98;;;;;;;7.22;67.96;100791.84;1729394;81;21603;-58
2021/10/14 06:39:47;;;;;;;13.58;8.75;;;;;;;7.16;67.99;100801.39;1738918;80;21547;-57
2021/10/14 06:42:14;;;;;;;19.77;10.65;;;;;;;7.09;68.10;100792.66;1724594;80;21070;-58
2021/10/14 06:44:40;;;;;;;14.68;9.38;;;;;;;7.07;68.57;100788.83;1738359;81;21117;-57
2021/10/14 06:47:06;;;;;;;16.82;9.10;;;;;;;7.17;68.49;100793.06;1717802;82;21868;-57
2021/10/14 06:49:33;;;;;;;14.65;9.43;;;;;;;7.25;68.37;100794.76;1678876;83;21003;-57
2021/10/14 06:51:59;;;;;;;19.48;9.93;;;;;;;7.30;68.28;100799.73;1708318;82;21043;-57
2021/10/14 06:54:26;;;;;;;14.35;9.48;;;;;;;7.33;68.37;100799.52;1701566;83;21006;-57
2021/10/14 06:56:52;;;;;;;14.78;9.38;;;;;;;7.36;68.31;100806.75;1737972;81;21031;-57
2021/10/14 06:59:19;;;;;;;16.32;10.25;;;;;;;7.36;68.29;100806.75;1736483;80;22756;-57
2021/10/14 07:01:45;;;;;;;14.50;9.93;;;;;;;7.38;68.48;100814.48;1721605;82;21081;-58
2021/10/14 07:04:12;;;;;;;15.40;9.43;;;;;;;7.53;68.12;100816.66;1714786;82;21140;-57
2021/10/14 07:06:38;;;;;;;19.10;10.50;;;;;;;7.65;67.79;100815.06;1706314;82;21112;-58
2021/10/14 07:09:05;;;;;;;15.72;9.25;;;;;;;7.68;67.79;100810.95;1734820;80;21042;-57
2021/10/14 07:11:32;;;;;;;19.25;10.55;;;;;;;7.73;67.67;100812.82;1737127;81;21103;-58
2021/10/14 07:13:58;;;;;;;18.65;10.85;;;;;;;7.73;67.70;100817.62;1742180;81;21095;-57
2021/10/14 07:16:27;;;;;;;17.27;11.38;;;;;;;7.76;67.77;100823.12;1734524;80;21072;-57
2021/10/14 07:18:54;;;;;;;16.40;10.48;;;;;;;7.81;67.56;100824.98;1729775;81;21023;-58
2021/10/14 07:21:21;;;;;;;16.70;10.55;;;;;;;7.86;67.32;100829.48;1736999;81;20964;-57
2021/10/14 07:23:47;;;;;;;16.32;10.08;;;;;;;7.99;67.12;100829.57;1743666;80;21078;-58
2021/10/14 07:26:13;;;;;;;16.42;10.00;;;;;;;8.12;66.93;100827.87;1745134;80;21035;-58
2021/10/14 07:28:40;;;;;;;19.82;10.58;;;;;;;8.22;66.92;100824.66;1734412;81;21023;-57
2021/10/14 07:31:07;;;;;;;18.48;11.28;;;;;;;8.28;66.79;100834.77;1747726;80;20983;-58
2021/10/14 07:33:34;;;;;;;17.00;11.15;;;;;;;8.32;66.90;100826.61;1742959;80;21035;-58
2021/10/14 07:36:00;;;;;;;17.90;10.43;;;;;;;8.38;66.61;100820.13;1739156;80;21218;-57
2021/10/14 07:38:27;;;;;;;17.73;10.63;;;;;;;8.44;66.10;100830.72;1739352;80;21019;-57
2021/10/14 07:40:54;;;;;;;14.65;9.73;;;;;;;8.47;65.89;100831.39;1723798;81;21551;-58
2021/10/14 07:43:20;;;;;;;17.12;10.68;;;;;;;8.55;65.55;100840.05;1737434;80;21145;-58
2021/10/14 07:45:47;;;;;;;17.92;9.88;;;;;;;8.68;65.20;100844.05;1742590;80;21043;-58
2021/10/14 07:48:13;;;;;;;16.57;9.83;;;;;;;8.83;65.11;100833.03;1732586;81;21062;-58
2021/10/14 07:50:41;;;;;;;15.65;9.68;;;;;;;8.99;64.75;100839.41;1749006;80;21039;-56
2021/10/14 07:53:15;;;;;;;13.53;7.87;;;;;;;9.10;63.85;100839.07;1731714;80;20992;-59
2021/10/14 07:55:43;;;;;;;15.32;8.75;;;;;;;9.18;63.54;100850.39;1747670;80;21453;-56
2021/10/14 07:58:10;;;;;;;16.62;8.85;;;;;;;9.20;63.18;100854.23;1698041;82;21050;-56
2021/10/14 08:00:37;;;;;;;16.05;9.75;;;;;;;9.21;63.22;100848.88;1682983;83;20976;-56
2021/10/14 08:03:04;;;;;;;13.50;8.68;;;;;;;9.24;63.77;100846.50;1680104;83;20991;-56
2021/10/14 08:05:31;;;;;;;17.15;9.05;;;;;;;9.32;63.37;100853.87;1691902;82;22149;-57
2021/10/14 08:07:59;;;;;;;13.38;8.60;;;;;;;9.35;63.86;100847.94;1710020;82;21053;-57
2021/10/14 08:10:27;;;;;;;15.78;9.40;;;;;;;9.45;63.46;100859.98;1709791;82;21575;-57
2021/10/14 08:12:54;;;;;;;16.07;8.25;;;;;;;9.58;63.05;100850.77;1703542;82;21587;-57
2021/10/14 08:15:21;;;;;;;17.67;8.90;;;;;;;9.67;62.83;100858.05;1700753;82;21074;-57
2021/10/14 08:17:48;;;;;;;15.05;8.65;;;;;;;9.74;62.48;100858.47;1740879;80;21551;-57
2021/10/14 08:20:15;;;;;;;18.55;9.40;;;;;;;9.77;62.77;100863.03;1730012;80;21072;-57
2021/10/14 08:22:42;;;;;;;13.95;8.80;;;;;;;9.83;62.44;100855.18;1731351;80;21038;-57
2021/10/14 08:25:13;;;;;;;12.88;9.20;;;;;;;9.85;62.34;100864.66;1736416;80;21083;-57
2021/10/14 08:27:43;;;;;;;12.10;8.20;;;;;;;9.88;61.83;100858.81;1734254;80;21082;-57
2021/10/14 08:30:12;;;;;;;16.40;9.98;;;;;;;9.91;62.20;100861.23;1688939;83;21677;-56
2021/10/14 08:32:41;;;;;;;16.27;8.95;;;;;;;9.95;61.72;100870.13;1694527;82;21054;-57
2021/10/14 08:35:10;;;;;;;12.88;7.72;;;;;;;10.06;61.15;100873.30;1702169;82;21066;-56
2021/10/14 08:37:38;;;;;;;13.22;8.35;;;;;;;10.19;60.19;100875.92;1667984;82;21344;-57
2021/10/14 08:40:05;;;;;;;15.60;8.55;;;;;;;10.28;59.87;100865.22;1723133;82;21003;-57
2021/10/14 08:42:32;;;;;;;12.70;7.62;;;;;;;10.32;59.42;100865.39;1732389;81;21094;-57
2021/10/14 08:45:04;;;;;;;16.23;8.40;;;;;;;10.36;59.29;100866.86;1680266;83;21007;-57
2021/10/14 08:47:32;;;;;;;11.50;7.55;;;;;;;10.34;59.00;100870.92;1710117;82;21463;-58
2021/10/14 08:49:58;;;;;;;12.40;7.85;;;;;;;10.33;59.26;100871.02;1695898;83;21036;-58
2021/10/14 08:52:25;;;;;;;12.07;7.95;;;;;;;10.35;59.41;100865.17;1737014;80;21632;-58
2021/10/14 08:54:52;;;;;;;13.15;8.38;;;;;;;10.40;59.45;100873.58;1698642;83;21516;-58
2021/10/14 08:57:18;;;;;;;18.92;8.85;;;;;;;10.45;59.55;100867.50;1704165;82;21029;-58
2021/10/14 08:59:45;;;;;;;14.05;6.92;;;;;;;10.49;58.95;100878.19;1705000;83;21011;-58
2021/10/14 09:02:15;;;;;;;15.15;7.75;;;;;;;10.51;58.66;100878.09;1705306;83;21749;-58
2021/10/14 09:04:59;;;;;;;13.60;7.50;;;;;;;10.53;59.33;100882.75;1675320;84;20980;-58
2021/10/14 09:07:29;;;;;;;12.23;7.85;;;;;;;10.55;58.28;100889.57;1699130;83;20997;-58
2021/10/14 09:10:01;;;;;;;11.05;7.50;;;;;;;10.56;58.10;100889.12;1700299;82;21090;-58
2021/10/14 09:12:34;;;;;;;12.85;7.92;;;;;;;10.55;58.07;100886.94;1694467;83;21573;-56
2021/10/14 09:15:10;;;;;;;17.48;8.35;;;;;;;10.57;58.43;100887.69;1680728;83;21207;-57
2021/10/14 09:17:45;;;;;;;17.50;7.97;;;;;;;10.69;58.41;100878.52;1683087;83;21633;-57
2021/10/14 09:20:31;;;;;;;13.72;7.78;;;;;;;10.88;57.78;100889.41;1696468;82;21087;-57
2021/10/14 09:23:02;;;;;;;13.22;7.70;;;;;;;10.99;57.62;100878.55;1720314;81;22116;-57
2021/10/14 09:25:36;;;;;;;11.25;6.78;;;;;;;11.13;55.96;100881.02;1720600;81;21102;-58
2021/10/14 09:28:22;;;;;;;11.97;6.95;;;;;;;11.22;56.43;100886.91;1695109;82;21169;-57
2021/10/14 09:31:06;;;;;;;13.35;8.00;;;;;;;11.27;56.07;100886.08;1698264;83;21642;-57
2021/10/14 09:33:45;;;;;;;14.83;8.40;;;;;;;11.28;55.66;100876.38;1732487;80;21027;-58
2021/10/14 09:36:23;;;;;;;16.15;8.18;;;;;;;11.30;56.35;100883.70;1730618;80;21098;-58
2021/10/14 09:38:57;;;;;;;11.28;8.18;;;;;;;11.38;56.13;100880.02;1723152;81;21076;-59
2021/10/14 09:41:24;;;;;;;10.80;7.08;;;;;;;11.48;56.05;100894.63;1737114;80;21065;-57
2021/10/14 09:43:54;;;;;;;15.65;8.08;;;;;;;11.62;55.18;100890.97;1730429;81;21674;-57
2021/10/14 09:46:40;;;;;;;15.15;7.17;;;;;;;11.70;54.26;100896.47;1732586;80;21015;-57
2021/10/14 09:49:09;;;;;;;13.30;8.15;;;;;;;11.73;54.49;100885.69;1735872;80;21061;-57
2021/10/14 09:51:36;;;;;;;12.47;7.10;;;;;;;11.77;54.31;100896.84;1700169;84;21159;-57
2021/10/14 09:54:03;;;;;;;12.13;6.45;;;;;;;11.77;54.39;100890.24;1730797;80;21149;-57
2021/10/14 09:56:30;;;;;;;11.25;6.00;;;;;;;11.79;54.14;100896.27;1732117;82;21039;-57
2021/10/14 09:58:58;;;;;;;10.63;6.17;;;;;;;11.82;53.70;100885.48;1720556;81;21865;-57
2021/10/14 10:01:25;;;;;;;11.20;6.62;;;;;;;11.87;53.58;100891.24;1731847;80;21119;-58
2021/10/14 10:03:52;;;;;;;13.43;6.97;;;;;;;11.93;53.62;100890.78;1724127;80;21042;-58
2021/10/14 10:06:26;;;;;;;12.60;6.72;;;;;;;11.95;53.52;100895.45;1732700;80;21091;-58
2021/10/14 10:08:54;;;;;;;10.85;7.65;;;;;;;12.00;53.13;100895.95;1731387;80;21055;-58
2021/10/14 10:11:21;;;;;;;9.55;6.28;;;;;;;12.02;53.33;100897.13;1731028;80;21062;-58
2021/10/14 10:13:51;;;;;;;9.90;6.00;;;;;;;12.05;53.51;100901.71;1731160;80;21129;-58
2021/10/14 10:16:23;;;;;;;12.58;6.55;;;;;;;12.12;53.16;100912.63;1742606;80;20984;-57
2021/10/14 10:18:55;;;;;;;11.63;6.37;;;;;;;12.22;53.11;100904.80;1741109;80;21802;-57
2021/10/14 10:21:37;;;;;;;10.40;5.95;;;;;;;12.32;53.07;100907.07;1744971;80;22496;-57
2021/10/14 10:24:08;;;;;;;10.80;6.70;;;;;;;12.41;52.28;100909.00;1747676;80;21034;-58
2021/10/14 10:26:46;;;;;;;11.97;6.42;;;;;;;12.47;52.16;100914.75;1736371;80;21114;-57
2021/10/14 10:29:18;;;;;;;12.10;7.33;;;;;;;12.52;52.65;100915.22;1747497;81;21046;-57
2021/10/14 10:31:56;;;;;;;12.55;7.15;;;;;;;12.62;51.63;100917.02;1709146;82;21179;-57
2021/10/14 10:34:55;;;;;;;12.45;6.50;;;;;;;12.71;51.42;100921.17;1707852;82;21135;-57
2021/10/14 10:37:44;;;;;;;15.25;7.40;;;;;;;12.75;51.36;100925.27;1709720;82;21078;-57
2021/10/14 10:40:25;;;;;;;11.25;7.78;;;;;;;12.76;51.56;100926.45;1714682;82;21451;-59
2021/10/14 10:43:14;;;;;;;13.35;7.17;;;;;;;12.73;51.61;100921.42;1693311;83;21715;-59
2021/10/14 10:45:49;;;;;;;11.30;6.75;;;;;;;12.78;51.84;100927.66;1712287;82;21164;-59
2021/10/14 10:48:18;;;;;;;14.47;8.10;;;;;;;12.83;51.13;100928.13;1691468;84;21556;-59
2021/10/14 10:50:48;;;;;;;10.03;6.78;;;;;;;12.82;51.33;100929.08;1692396;83;21066;-58
2021/10/14 10:53:22;;;;;;;14.23;7.50;;;;;;;12.87;51.27;100927.39;1679822;82;21045;-57
2021/10/14 10:55:56;;;;;;;14.77;7.83;;;;;;;12.94;51.50;100921.95;1677469;83;21061;-57
2021/10/14 10:58:47;;;;;;;13.38;7.25;;;;;;;13.05;50.63;100935.63;1699849;82;21120;-58
2021/10/14 11:01:16;;;;;;;13.13;6.97;;;;;;;13.06;49.92;100932.00;1694602;83;21113;-57
2021/10/14 11:03:58;;;;;;;16.07;6.85;;;;;;;13.03;50.26;100938.39;1698515;83;21098;-57
2021/10/14 11:06:26;;;;;;;11.20;6.75;;;;;;;13.07;49.83;100937.16;1696213;82;21126;-57
2021/10/14 11:08:54;;;;;;;9.95;5.80;;;;;;;13.00;48.73;100942.11;1692593;82;21145;-57
2021/10/14 11:11:21;;;;;;;11.88;7.67;;;;;;;12.91;49.44;100943.33;1689850;83;21162;-57
2021/10/14 11:13:51;;;;;;;10.53;6.03;;;;;;;12.86;49.42;100942.87;1687785;83;21071;-57
2021/10/14 11:16:19;;;;;;;9.78;5.92;;;;;;;12.87;49.77;100945.39;1688567;83;21092;-57
2021/10/14 11:18:51;;;;;;;10.23;6.03;;;;;;;12.92;49.36;100943.70;1683767;83;21028;-57
2021/10/14 11:21:20;;;;;;;11.40;6.33;;;;;;;12.90;49.20;100946.95;1687637;83;21028;-57
2021/10/14 11:23:49;;;;;;;11.50;6.85;;;;;;;12.80;49.38;100938.44;1687748;83;21858;-57
2021/10/14 11:26:27;;;;;;;11.18;6.22;;;;;;;12.71;49.71;100940.97;1732905;80;21482;-58